Latest Weather Observations for Kanagulk

IDV60801

Issued at 8:42 am EDT Friday 22 October 2021 (issued every 10 minutes, with the page automatically refreshed every 10 minutes)

About weather observations | Map of weather stations | Latest weather observations for VIC | Other Formats
Station Details ID: 079097 Name: KANAGULK Lat: -37.12 Lon: 141.80 Height: 188.8 m
Data from the previous 72 hours. | See also: Recent months at Kanagulk
Date/Time
EDT
Temp
°C
App
Temp
°C
Dew
Point
°C
Rel
Hum
%
Delta-T
°C
Wind Press
QNH
hPa
Press
MSL
hPa
Rain since
9am
mm
Dir  Spd
km/h
Gust
km/h
Spd
kts
Gust
kts
22/08:30am 13.2 12.1 11.8 91 0.8 S 9 13 5 7 1014.0 1013.9 0.0
22/08:00am 12.4 10.4 11.5 94 0.5 SSE 13 15 7 8 1013.9 1013.8 0.0
22/07:30am 11.3 9.8 10.7 96 0.3 S 9 13 5 7 1013.7 1013.6 0.0
22/07:00am 10.2 8.8 9.6 96 0.3 S 7 13 4 7 1013.6 1013.5 0.0
22/06:30am 10.5 8.8 9.7 95 0.4 S 9 13 5 7 1013.7 1013.6 0.0
22/06:00am 10.6 8.9 10.0 96 0.3 S 9 11 5 6 1013.6 1013.5 0.0
22/05:30am 10.6 8.9 10.0 96 0.3 S 9 11 5 6 1013.5 1013.4 0.0
22/05:00am 10.6 9.0 10.1 97 0.3 S 9 11 5 6 1013.4 1013.3 0.0
22/04:30am 10.5 9.2 9.9 96 0.3 S 7 11 4 6 1013.4 1013.3 0.0
22/04:00am 11.0 9.5 10.4 96 0.3 S 9 13 5 7 1013.4 1013.3 0.0
22/03:30am 11.4 9.5 10.6 95 0.4 S 11 13 6 7 1013.7 1013.6 0.0
22/03:00am 11.5 10.0 10.7 95 0.4 S 9 13 5 7 1013.8 1013.7 0.0
22/02:30am 12.0 10.7 11.2 95 0.4 S 9 13 5 7 1014.0 1013.9 0.0
22/02:00am 12.4 10.8 11.6 95 0.4 S 11 15 6 8 1014.3 1014.2 0.0
22/01:30am 12.5 10.9 11.6 94 0.5 S 11 15 6 8 1014.7 1014.6 0.0
22/01:00am 13.1 11.3 12.0 93 0.6 S 13 22 7 12 1014.9 1014.8 0.0
22/12:30am 13.7 12.0 12.4 92 0.7 S 13 19 7 10 1015.1 1015.0 0.0
22/12:00am 13.4 12.5 12.5 94 0.5 S 9 13 5 7 1015.1 1015.0 0.0
 
Date/Time
EDT
Temp
°C
App
Temp
°C
Dew
Point
°C
Rel
Hum
%
Delta-T
°C
Wind Press
QNH
hPa
Press
MSL
hPa
Rain since
9am
mm
Dir  Spd
km/h
Gust
km/h
Spd
kts
Gust
kts
21/11:30pm 13.4 12.3 12.0 91 0.8 S 9 13 5 7 1015.0 1014.9 0.0
21/11:00pm 13.9 13.3 12.3 90 0.9 S 7 9 4 5 1014.9 1014.8 0.0
21/10:30pm 15.3 14.1 12.8 85 1.4 SSW 11 17 6 9 1014.8 1014.7 0.0
21/10:00pm 15.7 14.6 11.9 78 2.1 SSW 9 15 5 8 1014.6 1014.5 0.0
21/09:30pm 15.3 14.4 11.3 77 2.2 SW 7 11 4 6 1014.1 1014.0 0.0
21/09:00pm 16.4 15.8 11.6 73 2.6 SW 6 9 3 5 1013.8 1013.7 0.0
21/08:30pm 17.2 17.4 11.7 70 3.0 SW 2 7 1 4 1013.5 1013.4 0.0
21/08:00pm 18.7 18.0 12.0 65 3.7 SW 7 11 4 6 1012.8 1012.7 0.0
21/07:30pm 20.2 18.9 12.4 61 4.4 SW 11 20 6 11 1012.6 1012.5 0.0
21/07:00pm 21.8 20.7 12.1 54 5.5 WSW 9 17 5 9 1012.2 1012.1 0.0
21/06:30pm 22.8 21.7 13.0 54 5.7 WSW 11 20 6 11 1011.9 1011.8 0.0
21/06:00pm 23.3 22.1 12.9 52 6.0 WSW 11 20 6 11 1011.5 1011.4 0.0
21/05:30pm 24.1 22.6 13.0 50 6.5 W 13 19 7 10 1011.1 1011.0 0.0
21/05:00pm 23.4 21.7 12.4 50 6.3 WNW 13 20 7 11 1010.9 1010.8 0.0
21/04:30pm 24.4 23.2 12.7 48 6.8 WSW 11 20 6 11 1010.8 1010.7 0.0
21/04:00pm 23.5 21.8 13.7 54 5.8 WNW 15 24 8 13 1011.0 1010.9 0.0
21/03:30pm 23.9 22.2 12.5 49 6.6 W 13 20 7 11 1010.7 1010.6 0.0
21/03:00pm 24.2 21.6 9.4 39 8.1 WNW 13 22 7 12 1010.7 1010.6 0.0
21/02:30pm 24.0 20.3 8.0 36 8.5 NW 17 24 9 13 1011.0 1010.9 0.0
21/02:00pm 24.6 20.5 7.7 34 9.0 NW 19 28 10 15 1011.1 1011.0 0.0
21/01:30pm 25.3 21.9 9.2 36 8.8 NNW 17 30 9 16 1011.0 1010.9 0.0
21/01:00pm 24.4 20.7 11.4 44 7.4 NNE 22 32 12 17 1011.3 1011.2 0.0
21/12:30pm 23.6 19.8 11.3 46 6.9 N 22 39 12 21 1011.5 1011.4 0.0
21/12:00pm 23.7 20.1 11.7 47 6.8 N 22 33 12 18 1011.8 1011.7 0.0
21/11:30am 21.0 16.9 10.2 50 5.9 N 22 37 12 20 1011.8 1011.7 0.0
21/11:00am 21.9 18.4 11.0 50 6.1 N 20 32 11 17 1012.2 1012.1 0.0
21/10:30am 20.9 17.3 10.7 52 5.6 N 20 32 11 17 1012.3 1012.2 0.0
21/10:00am 19.4 15.5 9.6 53 5.3 N 20 30 11 16 1012.5 1012.4 0.0
21/09:30am 19.5 16.6 11.0 58 4.7 N 17 26 9 14 1012.6 1012.5 0.0
21/09:00am 17.6 15.3 10.5 63 3.8 N 13 20 7 11 1012.6 1012.5 0.0
21/08:30am 16.7 15.5 10.3 66 3.4 N 7 15 4 8 1012.7 1012.6 0.0
21/08:00am 15.3 13.4 9.2 67 3.2 NNW 9 15 5 8 1012.6 1012.5 0.0
21/07:30am 14.3 11.0 9.5 73 2.5 NNE 17 22 9 12 1012.0 1011.9 0.0
21/07:00am 14.4 10.0 8.8 69 2.9 NNE 22 30 12 16 1011.7 1011.6 0.0
21/06:30am 15.3 10.4 8.3 63 3.6 NNE 24 32 13 17 1011.3 1011.2 0.0
21/06:00am 14.9 10.7 8.2 64 3.4 NE 20 28 11 15 1011.4 1011.3 0.0
21/05:30am 14.7 11.4 8.2 65 3.3 NE 15 20 8 11 1011.4 1011.3 0.0
21/05:00am 14.5 10.9 8.5 67 3.1 NE 17 20 9 11 1011.3 1011.2 0.0
21/04:30am 14.7 11.5 8.4 66 3.2 NE 15 20 8 11 1011.4 1011.3 0.0
21/04:00am 14.8 11.2 8.3 65 3.3 NE 17 22 9 12 1011.5 1011.4 0.0
21/03:30am 14.9 11.3 8.2 64 3.4 NNE 17 24 9 13 1011.8 1011.7 0.0
21/03:00am 15.4 12.0 7.7 60 3.9 NNE 15 20 8 11 1011.6 1011.5 0.0
21/02:30am 15.3 11.4 7.3 59 4.0 NNE 17 24 9 13 1011.6 1011.5 0.0
21/02:00am 15.3 11.4 7.3 59 4.0 NE 17 22 9 12 1011.5 1011.4 0.0
21/01:30am 15.3 11.1 7.3 59 4.0 NE 19 22 10 12 1012.1 1012.0 0.0
21/01:00am 15.1 11.6 7.4 60 3.8 NNE 15 19 8 10 1012.2 1012.1 0.0
21/12:30am 16.3 12.7 6.7 53 4.8 NNE 15 19 8 10 1012.5 1012.4 0.0
21/12:00am 17.1 13.0 6.0 48 5.5 NNE 17 22 9 12 1012.5 1012.4 0.0
 
Date/Time
EDT
Temp
°C
App
Temp
°C
Dew
Point
°C
Rel
Hum
%
Delta-T
°C
Wind Press
QNH
hPa
Press
MSL
hPa
Rain since
9am
mm
Dir  Spd
km/h
Gust
km/h
Spd
kts
Gust
kts
20/11:30pm 17.4 12.7 6.0 47 5.6 NNE 20 26 11 14 1012.4 1012.3 0.0
20/11:00pm 18.1 13.3 5.7 44 6.1 NNE 20 28 11 15 1012.5 1012.4 0.0
20/10:30pm 17.7 12.6 5.9 46 5.8 NNE 22 30 12 16 1012.5 1012.4 0.0
20/10:00pm 18.0 13.5 5.9 45 6.0 NNE 19 24 10 13 1012.7 1012.6 0.0
20/09:30pm 18.2 13.1 6.1 45 6.0 NE 22 32 12 17 1012.6 1012.5 0.0
20/09:00pm 17.6 12.9 6.2 47 5.7 NNE 20 28 11 15 1012.8 1012.7 0.0
20/08:30pm 18.1 13.4 6.0 45 6.0 NNE 20 24 11 13 1013.0 1013.0 0.0
20/08:00pm 18.9 14.1 5.4 41 6.6 NNE 20 28 11 15 1013.2 1013.1 0.0
20/07:30pm 18.6 14.1 6.1 44 6.2 NNE 19 24 10 13 1013.0 1013.0 0.0
20/07:00pm 19.4 15.4 6.5 43 6.5 NNE 17 22 9 12 1013.4 1013.3 0.0
20/06:30pm 20.4 15.7 6.0 39 7.2 NNE 20 30 11 16 1013.3 1013.2 0.0
20/06:00pm 20.9 15.9 6.4 39 7.4 NNE 22 32 12 17 1012.9 1012.8 0.0
20/05:30pm 21.3 15.9 6.4 38 7.6 NNE 24 33 13 18 1012.8 1012.7 0.0
20/05:00pm 22.2 15.3 6.4 36 8.1 NNE 32 48 17 26 1012.7 1012.6 0.0
20/04:49pm 22.6 16.5 6.4 35 8.3 NE 28 46 15 25 1012.7 1012.6 0.0
20/04:30pm 22.4 16.0 7.0 37 8.0 NNE 30 46 16 25 1012.8 1012.7 0.0
20/04:00pm 22.3 15.3 6.9 37 8.0 NE 33 46 18 25 1013.2 1013.1 0.0
20/03:30pm 22.3 15.4 6.5 36 8.1 NNE 32 43 17 23 1014.0 1013.9 0.0
20/03:00pm 22.3 16.5 8.1 40 7.5 NNE 28 44 15 24 1014.5 1014.4 0.0
20/02:30pm 21.5 15.4 8.1 42 7.1 NNE 30 44 16 24 1015.2 1015.1 0.0
20/02:01pm 21.1 14.8 7.3 41 7.2 NNE 30 50 16 27 1015.7 1015.6 0.0
20/02:00pm 21.0 14.6 6.9 40 7.2 NNE 30 41 16 22 1015.8 1015.7 0.0
20/01:30pm 20.9 14.7 7.9 43 6.8 NNE 30 43 16 23 1016.3 1016.2 0.0
20/01:15pm 20.8 14.8 7.1 41 7.1 NNE 28 50 15 27 1016.3 1016.2 0.0
20/01:00pm 20.3 13.8 8.3 46 6.3 NNE 32 44 17 24 1016.6 1016.5 0.0
20/12:30pm 19.9 13.3 7.6 45 6.4 NNE 32 43 17 23 1017.3 1017.2 0.0
20/12:00pm 18.8 12.8 6.9 46 6.0 NNE 28 41 15 22 1018.2 1018.2 0.0
20/11:30am 18.3 12.1 7.7 50 5.4 NE 30 41 16 22 1018.5 1018.5 0.0
20/11:00am 17.5 12.6 8.4 55 4.7 NNE 24 33 13 18 1018.6 1018.6 0.0
20/10:30am 16.4 10.5 7.6 56 4.5 NE 28 37 15 20 1018.9 1018.8 0.0
20/10:00am 15.5 9.5 7.0 57 4.2 NNE 28 43 15 23 1018.8 1018.7 0.0
20/09:30am 14.6 9.7 8.3 66 3.2 NNE 24 35 13 19 1018.8 1018.7 0.0
20/09:00am 13.0 9.5 8.9 76 2.1 NNE 17 24 9 13 1019.0 1018.9 0.0
20/08:30am 10.5 7.6 8.3 86 1.1 NE 13 17 7 9 1019.0 1018.9 0.0
20/08:00am 7.3 5.7 6.4 94 0.4 E 4 7 2 4 1019.3 1019.2 0.0
20/07:30am 5.5 3.1 5.1 97 0.2 ESE 7 9 4 5 1019.3 1019.2 0.0
20/07:00am 4.7 2.1 4.3 97 0.2 SSE 7 9 4 5 1019.9 1019.8 0.0
20/06:30am 3.5 2.0 2.9 96 0.2 CALM 0 0 0 0 1020.0 1019.9 0.0
20/06:00am 3.6 1.0 3.0 96 0.2 SSE 6 7 3 4 1020.1 1020.0 0.0
20/05:30am 4.3 1.6 3.9 97 0.2 SSE 7 9 4 5 1020.1 1020.0 0.0
20/05:00am 5.2 2.7 4.8 97 0.2 S 7 9 4 5 1020.2 1020.1 0.0
20/04:30am 4.3 1.6 3.7 96 0.3 SSE 7 9 4 5 1020.5 1020.4 0.0
20/04:00am 5.2 3.9 4.3 94 0.4 CALM 0 0 0 0 1020.1 1020.0 0.0
20/03:30am 5.5 4.0 4.8 95 0.3 SE 2 6 1 3 1020.3 1020.2 0.0
20/03:00am 5.7 3.2 4.8 94 0.4 SE 7 9 4 5 1020.5 1020.4 0.0
20/02:30am 6.3 3.9 5.4 94 0.4 SE 7 11 4 6 1020.7 1020.6 0.0
20/02:00am 6.8 4.2 5.9 94 0.4 SE 9 13 5 7 1021.2 1021.1 0.0
20/01:30am 7.3 4.8 6.4 94 0.4 SE 9 15 5 8 1022.1 1022.1 0.0
20/01:00am 7.6 4.4 6.9 95 0.3 SE 13 19 7 10 1022.6 1022.6 0.0
20/12:30am 5.9 2.3 4.9 93 0.4 SSE 13 15 7 8 1022.8 1022.8 0.0
20/12:00am 7.4 4.8 6.2 92 0.5 S 9 13 5 7 1023.3 1023.3 0.0
 
Date/Time
EDT
Temp
°C
App
Temp
°C
Dew
Point
°C
Rel
Hum
%
Delta-T
°C
Wind Press
QNH
hPa
Press
MSL
hPa
Rain since
9am
mm
Dir  Spd
km/h
Gust
km/h
Spd
kts
Gust
kts
19/11:30pm 7.5 4.1 6.1 91 0.6 SSE 13 15 7 8 1022.9 1022.9 0.0
19/11:00pm 7.8 4.4 6.1 89 0.8 SSE 13 17 7 9 1023.0 1023.0 0.0
19/10:30pm 8.5 4.8 6.3 86 1.0 SSE 15 20 8 11 1022.8 1022.8 0.0
19/10:00pm 9.3 5.3 6.6 83 1.3 SSE 17 22 9 12 1022.7 1022.7 0.0
19/09:30pm 9.9 5.9 6.8 81 1.5 SE 17 22 9 12 1022.5 1022.5 0.0
19/09:00pm 10.6 6.3 6.9 78 1.8 SSE 19 24 10 13 1022.7 1022.7 0.0
19/08:30pm 11.5 6.9 6.6 72 2.3 SSE 20 32 11 17 1022.1 1022.1 0.0
19/08:00pm 11.8 8.0 5.7 66 2.9 SSE 15 17 8 9 1021.8 1021.7 0.0
19/07:30pm 13.3 9.5 5.9 61 3.5 SSE 15 20 8 11 1022.2 1022.2 0.0
19/07:00pm 14.8 10.2 5.6 54 4.4 S 19 24 10 13 1022.2 1022.2 0.0
19/06:30pm 15.5 10.8 6.0 53 4.6 S 20 28 11 15 1021.7 1021.6 0.0
19/06:00pm 15.9 10.8 6.1 52 4.8 S 22 30 12 16 1021.7 1021.6 0.0
19/05:30pm 16.7 12.4 7.1 53 4.8 SSE 19 24 10 13 1021.2 1021.1 0.0
19/05:00pm 16.9 13.8 7.3 53 4.8 SE 13 24 7 13 1020.8 1020.7 0.0
19/04:30pm 16.3 11.4 5.3 48 5.3 SSE 20 28 11 15 1021.4 1021.3 0.0
19/04:00pm 15.7 10.6 6.2 53 4.6 SSE 22 32 12 17 1022.0 1022.0 0.0
19/03:30pm 16.0 12.0 6.7 54 4.6 S 17 24 9 13 1021.9 1021.8 0.0
19/03:00pm 15.6 11.6 6.6 55 4.4 SSE 17 24 9 13 1022.4 1022.4 0.0
19/02:30pm 15.6 12.0 6.6 55 4.4 SE 15 26 8 14 1022.4 1022.4 0.0
19/02:00pm 15.8 12.3 5.4 50 5.0 SE 13 20 7 11 1022.6 1022.6 0.0
19/01:30pm 14.6 10.0 5.4 54 4.4 SSE 19 28 10 15 1022.8 1022.8 0.0
19/01:00pm 14.3 9.9 6.6 60 3.7 SSE 19 26 10 14 1023.0 1023.0 0.0
19/12:30pm 14.4 10.3 6.3 58 3.9 SSE 17 28 9 15 1023.2 1023.2 0.0
19/12:00pm 14.1 9.8 6.9 62 3.5 SSE 19 28 10 15 1023.2 1023.2 0.0
19/11:30am 13.4 8.8 6.3 62 3.4 SE 20 28 11 15 1023.4 1023.4 0.0
19/11:00am 13.6 9.2 7.2 65 3.1 SE 20 32 11 17 1023.4 1023.4 0.0
19/10:30am 13.9 10.3 8.3 69 2.8 SE 17 28 9 15 1023.6 1023.6 0.0
19/10:00am 12.8 8.7 7.9 72 2.4 SE 19 28 10 15 1023.3 1023.3 0.0
19/09:30am 11.0 6.6 7.5 79 1.7 SE 20 32 11 17 1023.1 1023.1 0.0
19/09:00am 10.6 6.5 8.7 88 0.9 SSE 20 30 11 16 1022.8 1022.8 0.0

Other formats

Comma delimited format used in spreadsheet applications
http://www.bom.gov.au/fwo/IDV60801/IDV60801.95827.axf

JavaScript Object Notation format (JSON) in row-major order
http://www.bom.gov.au/fwo/IDV60801/IDV60801.95827.json

Data quality

Most of these data are generated automatically and are frequently updated. Quality checks on data are not normally performed. It is possible for incorrect values to appear. Refer to information at About Latest Weather Observations and please check the disclaimer before using these data.